Aérodrome :
LOGIN :

S'inscrire | Disclaimer

   EN    FR    IT 

 










Légende :    VFR   VFR Marginal   IFR   IFR Intensif   IFR Très Intensif
Visi : 
Plafond : 
>= 8 km
>= 3000ft
5 à 8 km
1000 à 3000 ft
1500m à 5 km
500 à 1000 ft
800 à 1500m
200 à 500 ft
< 800m
< 200 ft
Symboles :   Orages  Brouillard  Fortes neiges  Fortes précipitations  Vent > 20 kt
SIGMETs :   Divers  Orages  Givrage  Turbulence  Onde Orograph.  Cendres Volcan.







- Altitude de l'aérodrome : 184 ft
- Code IATA : BRU


EBBR - Bruxelles

DERNIER METAR :
  • 220550Z 25019KT 9999 BKN014 10/07 Q1009 TEMPO 23020G30KT

METARs EXPIRÉS :
  • 220520Z 25017KT 9999 -RA BKN015 10/08 Q1009 TEMPO 23023G36KT
  • 220450Z 24017KT 9999 -DZ BKN010 BKN014 10/08 Q1010 TEMPO 23023G36KT
  • 220420Z 24016G27KT 7000 DZ BKN008 BKN011 09/08 Q1010 RERA TEMPO 23023G36KT
  • 220350Z 24017KT 4500 RADZ BR SCT006 BKN008 BKN011 09/08 Q1010 TEMPO 23023G36KT
  • 220320Z 24016KT 5000 RADZ BR SCT006 BKN008 BKN011 09/08 Q1011 TEMPO 23023G36KT

TAF TAF EBBR
Valide du 22 à 06h jusqu'au 23 à 12h UTC


220510Z 2206/2312 24016G28KT 9999 SCT008 BKN012
PROB30
TEMPO 2206/2310 2500 DZ DZRA BKN007
BECMG 2310/2312 SCT020
Pas de NOTAMs connus pour ce terrain.
1 SIGMET publié pour la FIR Brussels (EBBU) :
 
Turbulence forte
EBBU SIGMET 01 VALID 220400/220700 EBBR
EBBU BRUSSELS FIR SEV TURB FCST W OF LINE N5115 E00400 - N5045 E00330 SFC/FL050 MOV E15KT WKN=



MET'MAP, la Météo Aéronautique d'un coup d'oeil ! - Copyright ORBIFLY Décembre 2007 - Disclaimer

ORBIFLY MET'MAP TEAM :

Programmation & Développement : Alexandra Zaïnal
Conception & Développement : Baudouin d'Aumeries
Co-Programmation & Développement : Marc-Olivier Méhu
Soutien technique & logistique : Manuel Goepfert

Contact : metmap@orbifly.com




SOURCES & CREDITS :

   NOAA